sensor_id;sensor_type;location;lat;lon;timestamp;P1;durP1;ratioP1;P2;durP2;ratioP2
6388;SDS011;3227;42.654;23.360;2022-11-09T00:01:33;37.60;;;24.83;;
6388;SDS011;3227;42.654;23.360;2022-11-09T00:04:00;40.53;;;25.37;;
6388;SDS011;3227;42.654;23.360;2022-11-09T00:06:29;36.40;;;24.70;;
6388;SDS011;3227;42.654;23.360;2022-11-09T00:08:58;34.93;;;22.90;;
6388;SDS011;3227;42.654;23.360;2022-11-09T00:11:25;34.73;;;23.63;;
6388;SDS011;3227;42.654;23.360;2022-11-09T00:13:52;38.80;;;24.43;;
6388;SDS011;3227;42.654;23.360;2022-11-09T00:16:20;36.57;;;23.97;;
6388;SDS011;3227;42.654;23.360;2022-11-09T00:18:47;38.10;;;24.13;;
6388;SDS011;3227;42.654;23.360;2022-11-09T00:21:16;35.63;;;24.47;;
6388;SDS011;3227;42.654;23.360;2022-11-09T00:23:44;36.23;;;24.47;;
6388;SDS011;3227;42.654;23.360;2022-11-09T00:26:14;38.70;;;24.30;;
6388;SDS011;3227;42.654;23.360;2022-11-09T00:28:42;41.33;;;25.30;;
6388;SDS011;3227;42.654;23.360;2022-11-09T00:31:15;38.47;;;23.33;;
6388;SDS011;3227;42.654;23.360;2022-11-09T00:33:45;34.87;;;22.57;;
6388;SDS011;3227;42.654;23.360;2022-11-09T00:36:19;38.43;;;24.83;;
6388;SDS011;3227;42.654;23.360;2022-11-09T00:38:47;41.57;;;25.53;;
6388;SDS011;3227;42.654;23.360;2022-11-09T00:41:21;38.43;;;24.43;;
6388;SDS011;3227;42.654;23.360;2022-11-09T00:43:48;40.53;;;25.63;;
6388;SDS011;3227;42.654;23.360;2022-11-09T00:46:15;36.20;;;24.53;;
6388;SDS011;3227;42.654;23.360;2022-11-09T00:48:42;37.37;;;24.73;;
6388;SDS011;3227;42.654;23.360;2022-11-09T00:51:09;40.60;;;24.23;;
6388;SDS011;3227;42.654;23.360;2022-11-09T00:53:37;38.00;;;24.33;;
6388;SDS011;3227;42.654;23.360;2022-11-09T00:56:05;39.77;;;24.07;;
6388;SDS011;3227;42.654;23.360;2022-11-09T00:58:35;42.37;;;26.73;;
6388;SDS011;3227;42.654;23.360;2022-11-09T01:01:04;43.23;;;26.00;;
6388;SDS011;3227;42.654;23.360;2022-11-09T01:03:32;41.33;;;25.90;;
6388;SDS011;3227;42.654;23.360;2022-11-09T01:05:59;41.27;;;25.47;;
6388;SDS011;3227;42.654;23.360;2022-11-09T01:08:28;41.00;;;24.73;;
6388;SDS011;3227;42.654;23.360;2022-11-09T01:10:55;45.20;;;25.73;;
6388;SDS011;3227;42.654;23.360;2022-11-09T01:13:22;45.53;;;25.97;;
6388;SDS011;3227;42.654;23.360;2022-11-09T01:15:51;44.43;;;25.90;;
6388;SDS011;3227;42.654;23.360;2022-11-09T01:18:19;40.37;;;26.67;;
6388;SDS011;3227;42.654;23.360;2022-11-09T01:20:47;44.17;;;26.20;;
6388;SDS011;3227;42.654;23.360;2022-11-09T01:23:16;39.03;;;25.83;;
6388;SDS011;3227;42.654;23.360;2022-11-09T01:25:55;42.43;;;24.93;;
6388;SDS011;3227;42.654;23.360;2022-11-09T01:28:23;40.00;;;23.27;;
6388;SDS011;3227;42.654;23.360;2022-11-09T01:30:52;42.83;;;25.37;;
6388;SDS011;3227;42.654;23.360;2022-11-09T01:33:19;41.07;;;26.63;;
6388;SDS011;3227;42.654;23.360;2022-11-09T01:35:46;43.70;;;25.63;;
6388;SDS011;3227;42.654;23.360;2022-11-09T01:38:13;45.77;;;26.23;;
6388;SDS011;3227;42.654;23.360;2022-11-09T01:40:39;43.27;;;25.50;;
6388;SDS011;3227;42.654;23.360;2022-11-09T01:43:12;42.80;;;25.77;;
6388;SDS011;3227;42.654;23.360;2022-11-09T01:45:41;38.90;;;24.93;;
6388;SDS011;3227;42.654;23.360;2022-11-09T01:48:12;37.77;;;24.17;;
6388;SDS011;3227;42.654;23.360;2022-11-09T01:50:45;42.03;;;25.37;;
6388;SDS011;3227;42.654;23.360;2022-11-09T01:53:16;40.67;;;24.93;;
6388;SDS011;3227;42.654;23.360;2022-11-09T01:55:46;40.67;;;25.47;;
6388;SDS011;3227;42.654;23.360;2022-11-09T01:58:17;39.90;;;26.20;;
6388;SDS011;3227;42.654;23.360;2022-11-09T02:00:48;42.30;;;27.70;;
6388;SDS011;3227;42.654;23.360;2022-11-09T02:03:18;42.80;;;26.50;;
6388;SDS011;3227;42.654;23.360;2022-11-09T02:05:49;39.67;;;26.83;;
6388;SDS011;3227;42.654;23.360;2022-11-09T02:08:18;49.00;;;28.93;;
6388;SDS011;3227;42.654;23.360;2022-11-09T02:10:49;46.03;;;28.80;;
6388;SDS011;3227;42.654;23.360;2022-11-09T02:13:23;41.17;;;25.47;;
6388;SDS011;3227;42.654;23.360;2022-11-09T02:15:52;39.63;;;24.27;;
6388;SDS011;3227;42.654;23.360;2022-11-09T02:18:20;38.13;;;24.43;;
6388;SDS011;3227;42.654;23.360;2022-11-09T02:20:49;37.87;;;25.07;;
6388;SDS011;3227;42.654;23.360;2022-11-09T02:23:18;37.30;;;24.30;;
6388;SDS011;3227;42.654;23.360;2022-11-09T02:25:47;41.23;;;26.13;;
6388;SDS011;3227;42.654;23.360;2022-11-09T02:28:18;36.90;;;24.93;;
6388;SDS011;3227;42.654;23.360;2022-11-09T02:30:45;36.33;;;24.10;;
6388;SDS011;3227;42.654;23.360;2022-11-09T02:33:16;37.53;;;24.13;;
6388;SDS011;3227;42.654;23.360;2022-11-09T02:35:43;38.60;;;24.53;;
6388;SDS011;3227;42.654;23.360;2022-11-09T02:38:11;36.60;;;24.17;;
6388;SDS011;3227;42.654;23.360;2022-11-09T02:40:40;38.70;;;24.87;;
6388;SDS011;3227;42.654;23.360;2022-11-09T02:43:10;42.30;;;24.47;;
6388;SDS011;3227;42.654;23.360;2022-11-09T02:45:40;39.97;;;23.53;;
6388;SDS011;3227;42.654;23.360;2022-11-09T02:48:06;35.10;;;23.90;;
6388;SDS011;3227;42.654;23.360;2022-11-09T02:50:33;35.57;;;23.77;;
6388;SDS011;3227;42.654;23.360;2022-11-09T02:53:01;39.33;;;24.90;;
6388;SDS011;3227;42.654;23.360;2022-11-09T02:55:29;38.53;;;24.30;;
6388;SDS011;3227;42.654;23.360;2022-11-09T02:57:56;33.63;;;22.87;;
6388;SDS011;3227;42.654;23.360;2022-11-09T03:00:23;35.43;;;23.90;;
6388;SDS011;3227;42.654;23.360;2022-11-09T03:02:50;38.47;;;24.43;;
6388;SDS011;3227;42.654;23.360;2022-11-09T03:05:17;42.73;;;25.67;;
6388;SDS011;3227;42.654;23.360;2022-11-09T03:07:43;37.43;;;23.97;;
6388;SDS011;3227;42.654;23.360;2022-11-09T03:10:10;41.23;;;24.37;;
6388;SDS011;3227;42.654;23.360;2022-11-09T03:12:38;36.77;;;23.13;;
6388;SDS011;3227;42.654;23.360;2022-11-09T03:15:06;35.83;;;23.50;;
6388;SDS011;3227;42.654;23.360;2022-11-09T03:17:33;35.57;;;24.43;;
6388;SDS011;3227;42.654;23.360;2022-11-09T03:20:00;45.03;;;23.80;;
6388;SDS011;3227;42.654;23.360;2022-11-09T03:22:27;37.97;;;24.30;;
6388;SDS011;3227;42.654;23.360;2022-11-09T03:24:54;39.67;;;23.97;;
6388;SDS011;3227;42.654;23.360;2022-11-09T03:27:21;41.23;;;23.93;;
6388;SDS011;3227;42.654;23.360;2022-11-09T03:29:49;35.40;;;23.07;;
6388;SDS011;3227;42.654;23.360;2022-11-09T03:32:16;36.13;;;22.63;;
6388;SDS011;3227;42.654;23.360;2022-11-09T03:34:42;35.97;;;23.60;;
6388;SDS011;3227;42.654;23.360;2022-11-09T03:37:09;38.10;;;23.30;;
6388;SDS011;3227;42.654;23.360;2022-11-09T03:39:36;36.23;;;24.30;;
6388;SDS011;3227;42.654;23.360;2022-11-09T03:42:03;39.93;;;24.60;;
6388;SDS011;3227;42.654;23.360;2022-11-09T03:44:29;38.37;;;24.20;;
6388;SDS011;3227;42.654;23.360;2022-11-09T03:46:58;35.90;;;23.80;;
6388;SDS011;3227;42.654;23.360;2022-11-09T03:49:24;39.13;;;24.53;;
6388;SDS011;3227;42.654;23.360;2022-11-09T03:51:51;37.03;;;23.87;;
6388;SDS011;3227;42.654;23.360;2022-11-09T03:54:18;36.93;;;24.47;;
6388;SDS011;3227;42.654;23.360;2022-11-09T03:56:45;38.93;;;24.83;;
6388;SDS011;3227;42.654;23.360;2022-11-09T03:59:11;43.77;;;23.17;;
6388;SDS011;3227;42.654;23.360;2022-11-09T04:01:38;40.40;;;24.97;;
6388;SDS011;3227;42.654;23.360;2022-11-09T04:04:06;34.07;;;22.40;;
6388;SDS011;3227;42.654;23.360;2022-11-09T04:06:33;34.47;;;23.33;;
6388;SDS011;3227;42.654;23.360;2022-11-09T04:09:00;37.57;;;25.30;;
6388;SDS011;3227;42.654;23.360;2022-11-09T04:11:27;40.23;;;23.50;;
6388;SDS011;3227;42.654;23.360;2022-11-09T04:13:54;44.47;;;23.87;;
6388;SDS011;3227;42.654;23.360;2022-11-09T04:16:20;39.13;;;23.00;;
6388;SDS011;3227;42.654;23.360;2022-11-09T04:18:47;37.00;;;25.47;;
6388;SDS011;3227;42.654;23.360;2022-11-09T04:21:15;35.20;;;22.80;;
6388;SDS011;3227;42.654;23.360;2022-11-09T04:23:42;39.00;;;23.83;;
6388;SDS011;3227;42.654;23.360;2022-11-09T04:26:09;36.60;;;23.33;;
6388;SDS011;3227;42.654;23.360;2022-11-09T04:28:36;33.90;;;22.90;;
6388;SDS011;3227;42.654;23.360;2022-11-09T04:31:03;36.13;;;23.67;;
6388;SDS011;3227;42.654;23.360;2022-11-09T04:33:29;38.37;;;22.70;;
6388;SDS011;3227;42.654;23.360;2022-11-09T04:36:00;32.20;;;22.37;;
6388;SDS011;3227;42.654;23.360;2022-11-09T04:38:29;37.73;;;22.60;;
6388;SDS011;3227;42.654;23.360;2022-11-09T04:40:58;36.70;;;22.70;;
6388;SDS011;3227;42.654;23.360;2022-11-09T04:43:26;36.23;;;24.37;;
6388;SDS011;3227;42.654;23.360;2022-11-09T04:45:52;35.70;;;22.63;;
6388;SDS011;3227;42.654;23.360;2022-11-09T04:48:19;46.07;;;25.83;;
6388;SDS011;3227;42.654;23.360;2022-11-09T04:50:46;42.80;;;22.90;;
6388;SDS011;3227;42.654;23.360;2022-11-09T04:53:14;39.97;;;23.50;;
6388;SDS011;3227;42.654;23.360;2022-11-09T04:55:42;35.43;;;23.40;;
6388;SDS011;3227;42.654;23.360;2022-11-09T04:58:10;41.00;;;22.77;;
6388;SDS011;3227;42.654;23.360;2022-11-09T05:00:37;41.93;;;25.10;;
6388;SDS011;3227;42.654;23.360;2022-11-09T05:03:05;36.10;;;22.20;;
6388;SDS011;3227;42.654;23.360;2022-11-09T05:05:33;34.17;;;22.33;;
6388;SDS011;3227;42.654;23.360;2022-11-09T05:08:00;34.67;;;22.50;;
6388;SDS011;3227;42.654;23.360;2022-11-09T05:10:26;32.73;;;23.10;;
6388;SDS011;3227;42.654;23.360;2022-11-09T05:12:58;36.73;;;23.30;;
6388;SDS011;3227;42.654;23.360;2022-11-09T05:15:25;44.57;;;22.93;;
6388;SDS011;3227;42.654;23.360;2022-11-09T05:17:52;37.97;;;22.57;;
6388;SDS011;3227;42.654;23.360;2022-11-09T05:20:19;39.80;;;23.97;;
6388;SDS011;3227;42.654;23.360;2022-11-09T05:22:46;37.77;;;22.83;;
6388;SDS011;3227;42.654;23.360;2022-11-09T05:25:30;37.03;;;22.60;;
6388;SDS011;3227;42.654;23.360;2022-11-09T05:27:59;39.67;;;24.33;;
6388;SDS011;3227;42.654;23.360;2022-11-09T05:30:26;54.20;;;23.77;;
6388;SDS011;3227;42.654;23.360;2022-11-09T05:32:53;38.83;;;23.77;;
6388;SDS011;3227;42.654;23.360;2022-11-09T05:35:20;46.70;;;24.67;;
6388;SDS011;3227;42.654;23.360;2022-11-09T05:37:47;48.40;;;25.40;;
6388;SDS011;3227;42.654;23.360;2022-11-09T05:40:15;51.33;;;25.53;;
6388;SDS011;3227;42.654;23.360;2022-11-09T05:42:42;51.20;;;25.87;;
6388;SDS011;3227;42.654;23.360;2022-11-09T05:45:12;53.83;;;27.03;;
6388;SDS011;3227;42.654;23.360;2022-11-09T05:47:40;40.40;;;24.27;;
6388;SDS011;3227;42.654;23.360;2022-11-09T05:50:10;43.53;;;24.13;;
6388;SDS011;3227;42.654;23.360;2022-11-09T05:52:39;44.47;;;23.60;;
6388;SDS011;3227;42.654;23.360;2022-11-09T05:55:06;43.57;;;25.23;;
6388;SDS011;3227;42.654;23.360;2022-11-09T05:57:34;48.03;;;25.40;;
6388;SDS011;3227;42.654;23.360;2022-11-09T06:00:01;43.87;;;25.53;;
6388;SDS011;3227;42.654;23.360;2022-11-09T06:02:31;57.30;;;27.73;;
6388;SDS011;3227;42.654;23.360;2022-11-09T06:04:57;51.57;;;26.77;;
6388;SDS011;3227;42.654;23.360;2022-11-09T06:07:25;58.77;;;28.13;;
6388;SDS011;3227;42.654;23.360;2022-11-09T06:09:52;60.63;;;30.10;;
6388;SDS011;3227;42.654;23.360;2022-11-09T06:12:19;59.90;;;29.43;;
6388;SDS011;3227;42.654;23.360;2022-11-09T06:14:46;59.63;;;28.57;;
6388;SDS011;3227;42.654;23.360;2022-11-09T06:17:13;58.57;;;29.20;;
6388;SDS011;3227;42.654;23.360;2022-11-09T06:19:41;58.67;;;29.73;;
6388;SDS011;3227;42.654;23.360;2022-11-09T06:22:08;58.37;;;28.80;;
6388;SDS011;3227;42.654;23.360;2022-11-09T06:24:34;73.67;;;31.20;;
6388;SDS011;3227;42.654;23.360;2022-11-09T06:27:01;65.73;;;31.07;;
6388;SDS011;3227;42.654;23.360;2022-11-09T06:29:28;56.27;;;28.33;;
6388;SDS011;3227;42.654;23.360;2022-11-09T06:31:55;68.83;;;30.50;;
6388;SDS011;3227;42.654;23.360;2022-11-09T06:34:22;60.20;;;31.17;;
6388;SDS011;3227;42.654;23.360;2022-11-09T06:36:51;71.53;;;30.50;;
6388;SDS011;3227;42.654;23.360;2022-11-09T06:39:18;61.10;;;30.83;;
6388;SDS011;3227;42.654;23.360;2022-11-09T06:41:45;53.57;;;29.50;;
6388;SDS011;3227;42.654;23.360;2022-11-09T06:44:12;59.57;;;29.40;;
6388;SDS011;3227;42.654;23.360;2022-11-09T06:46:39;57.70;;;29.47;;
6388;SDS011;3227;42.654;23.360;2022-11-09T06:49:06;58.33;;;29.67;;
6388;SDS011;3227;42.654;23.360;2022-11-09T06:51:33;58.07;;;30.80;;
6388;SDS011;3227;42.654;23.360;2022-11-09T06:54:01;57.23;;;30.70;;
6388;SDS011;3227;42.654;23.360;2022-11-09T06:56:28;49.87;;;28.33;;
6388;SDS011;3227;42.654;23.360;2022-11-09T06:58:55;45.47;;;26.90;;
6388;SDS011;3227;42.654;23.360;2022-11-09T07:01:23;45.83;;;26.03;;
6388;SDS011;3227;42.654;23.360;2022-11-09T07:03:53;45.20;;;26.20;;
6388;SDS011;3227;42.654;23.360;2022-11-09T07:06:19;46.70;;;26.33;;
6388;SDS011;3227;42.654;23.360;2022-11-09T07:08:46;45.47;;;26.07;;
6388;SDS011;3227;42.654;23.360;2022-11-09T07:11:14;41.87;;;26.40;;
6388;SDS011;3227;42.654;23.360;2022-11-09T07:13:43;43.23;;;26.37;;
6388;SDS011;3227;42.654;23.360;2022-11-09T07:16:22;42.03;;;27.10;;
6388;SDS011;3227;42.654;23.360;2022-11-09T07:18:49;43.67;;;27.33;;
6388;SDS011;3227;42.654;23.360;2022-11-09T07:21:16;41.97;;;28.07;;
6388;SDS011;3227;42.654;23.360;2022-11-09T07:23:43;45.20;;;27.30;;
6388;SDS011;3227;42.654;23.360;2022-11-09T07:26:12;37.07;;;25.57;;
6388;SDS011;3227;42.654;23.360;2022-11-09T07:28:40;41.27;;;26.20;;
6388;SDS011;3227;42.654;23.360;2022-11-09T07:31:07;44.27;;;25.50;;
6388;SDS011;3227;42.654;23.360;2022-11-09T07:33:34;41.80;;;25.43;;
6388;SDS011;3227;42.654;23.360;2022-11-09T07:36:03;39.40;;;23.97;;
6388;SDS011;3227;42.654;23.360;2022-11-09T07:38:30;37.93;;;26.13;;
6388;SDS011;3227;42.654;23.360;2022-11-09T07:40:57;36.53;;;25.13;;
6388;SDS011;3227;42.654;23.360;2022-11-09T07:43:25;35.57;;;25.03;;
6388;SDS011;3227;42.654;23.360;2022-11-09T07:45:53;38.77;;;24.87;;
6388;SDS011;3227;42.654;23.360;2022-11-09T07:48:20;36.33;;;24.97;;
6388;SDS011;3227;42.654;23.360;2022-11-09T07:50:47;37.73;;;25.10;;
6388;SDS011;3227;42.654;23.360;2022-11-09T07:53:14;40.37;;;26.07;;
6388;SDS011;3227;42.654;23.360;2022-11-09T07:55:42;39.27;;;26.87;;
6388;SDS011;3227;42.654;23.360;2022-11-09T07:58:10;41.33;;;26.47;;
6388;SDS011;3227;42.654;23.360;2022-11-09T08:00:39;33.73;;;21.90;;
6388;SDS011;3227;42.654;23.360;2022-11-09T08:03:08;41.80;;;26.20;;
6388;SDS011;3227;42.654;23.360;2022-11-09T08:05:36;40.43;;;26.40;;
6388;SDS011;3227;42.654;23.360;2022-11-09T08:08:04;39.40;;;24.53;;
6388;SDS011;3227;42.654;23.360;2022-11-09T08:10:33;40.03;;;26.53;;
6388;SDS011;3227;42.654;23.360;2022-11-09T08:13:01;44.43;;;27.20;;
6388;SDS011;3227;42.654;23.360;2022-11-09T08:15:29;41.53;;;26.77;;
6388;SDS011;3227;42.654;23.360;2022-11-09T08:18:00;42.83;;;27.73;;
6388;SDS011;3227;42.654;23.360;2022-11-09T08:20:30;42.30;;;28.30;;
6388;SDS011;3227;42.654;23.360;2022-11-09T08:22:58;41.87;;;28.10;;
6388;SDS011;3227;42.654;23.360;2022-11-09T08:25:25;45.30;;;28.90;;
6388;SDS011;3227;42.654;23.360;2022-11-09T08:27:51;46.87;;;29.60;;
6388;SDS011;3227;42.654;23.360;2022-11-09T08:30:20;46.73;;;28.90;;
6388;SDS011;3227;42.654;23.360;2022-11-09T08:32:47;39.77;;;27.27;;
6388;SDS011;3227;42.654;23.360;2022-11-09T08:35:15;44.97;;;28.57;;
6388;SDS011;3227;42.654;23.360;2022-11-09T08:37:46;41.83;;;28.37;;
6388;SDS011;3227;42.654;23.360;2022-11-09T08:40:15;42.03;;;28.07;;
6388;SDS011;3227;42.654;23.360;2022-11-09T08:42:43;49.93;;;30.13;;
6388;SDS011;3227;42.654;23.360;2022-11-09T08:45:10;53.53;;;30.43;;
6388;SDS011;3227;42.654;23.360;2022-11-09T08:47:37;47.13;;;29.33;;
6388;SDS011;3227;42.654;23.360;2022-11-09T08:50:05;48.60;;;29.20;;
6388;SDS011;3227;42.654;23.360;2022-11-09T08:52:33;45.67;;;29.87;;
6388;SDS011;3227;42.654;23.360;2022-11-09T08:55:01;45.03;;;30.10;;
6388;SDS011;3227;42.654;23.360;2022-11-09T08:57:29;47.10;;;31.67;;
6388;SDS011;3227;42.654;23.360;2022-11-09T08:59:56;49.87;;;30.27;;
6388;SDS011;3227;42.654;23.360;2022-11-09T09:02:23;47.27;;;29.60;;
6388;SDS011;3227;42.654;23.360;2022-11-09T09:04:50;43.50;;;30.13;;
6388;SDS011;3227;42.654;23.360;2022-11-09T09:07:17;45.87;;;29.70;;
6388;SDS011;3227;42.654;23.360;2022-11-09T09:09:44;45.17;;;31.20;;
6388;SDS011;3227;42.654;23.360;2022-11-09T09:12:12;51.20;;;32.20;;
6388;SDS011;3227;42.654;23.360;2022-11-09T09:14:38;44.27;;;30.67;;
6388;SDS011;3227;42.654;23.360;2022-11-09T09:17:05;47.90;;;30.70;;
6388;SDS011;3227;42.654;23.360;2022-11-09T09:19:32;47.50;;;30.50;;
6388;SDS011;3227;42.654;23.360;2022-11-09T09:21:59;50.40;;;31.23;;
6388;SDS011;3227;42.654;23.360;2022-11-09T09:24:26;40.57;;;28.20;;
6388;SDS011;3227;42.654;23.360;2022-11-09T09:26:53;47.53;;;30.90;;
6388;SDS011;3227;42.654;23.360;2022-11-09T09:29:21;45.33;;;29.57;;
6388;SDS011;3227;42.654;23.360;2022-11-09T09:31:48;48.50;;;30.40;;
6388;SDS011;3227;42.654;23.360;2022-11-09T09:34:15;47.00;;;30.80;;
6388;SDS011;3227;42.654;23.360;2022-11-09T09:36:42;55.47;;;31.60;;
6388;SDS011;3227;42.654;23.360;2022-11-09T09:39:09;45.00;;;30.70;;
6388;SDS011;3227;42.654;23.360;2022-11-09T09:41:37;46.87;;;30.40;;
6388;SDS011;3227;42.654;23.360;2022-11-09T09:44:11;43.27;;;30.37;;
6388;SDS011;3227;42.654;23.360;2022-11-09T09:46:48;43.63;;;30.27;;
6388;SDS011;3227;42.654;23.360;2022-11-09T09:49:22;52.03;;;31.50;;
6388;SDS011;3227;42.654;23.360;2022-11-09T09:51:53;43.67;;;30.23;;
6388;SDS011;3227;42.654;23.360;2022-11-09T09:54:25;51.70;;;31.77;;
6388;SDS011;3227;42.654;23.360;2022-11-09T09:56:56;49.83;;;33.60;;
6388;SDS011;3227;42.654;23.360;2022-11-09T09:59:28;49.23;;;32.70;;
6388;SDS011;3227;42.654;23.360;2022-11-09T10:02:02;52.20;;;31.73;;
6388;SDS011;3227;42.654;23.360;2022-11-09T10:04:31;43.30;;;29.03;;
6388;SDS011;3227;42.654;23.360;2022-11-09T10:07:02;45.93;;;30.17;;
6388;SDS011;3227;42.654;23.360;2022-11-09T10:09:48;47.77;;;29.97;;
6388;SDS011;3227;42.654;23.360;2022-11-09T10:12:29;42.43;;;26.20;;
6388;SDS011;3227;42.654;23.360;2022-11-09T10:15:14;42.20;;;26.90;;
6388;SDS011;3227;42.654;23.360;2022-11-09T10:17:51;38.90;;;25.53;;
6388;SDS011;3227;42.654;23.360;2022-11-09T10:20:31;44.90;;;25.93;;
6388;SDS011;3227;42.654;23.360;2022-11-09T10:23:10;45.90;;;25.80;;
6388;SDS011;3227;42.654;23.360;2022-11-09T10:25:53;43.13;;;25.20;;
6388;SDS011;3227;42.654;23.360;2022-11-09T10:28:27;37.33;;;22.90;;
6388;SDS011;3227;42.654;23.360;2022-11-09T10:30:57;33.83;;;23.53;;
6388;SDS011;3227;42.654;23.360;2022-11-09T10:33:27;36.23;;;24.63;;
6388;SDS011;3227;42.654;23.360;2022-11-09T10:35:56;32.30;;;22.77;;
6388;SDS011;3227;42.654;23.360;2022-11-09T10:38:28;41.20;;;25.40;;
6388;SDS011;3227;42.654;23.360;2022-11-09T10:40:59;38.90;;;23.90;;
6388;SDS011;3227;42.654;23.360;2022-11-09T10:43:29;34.07;;;23.27;;
6388;SDS011;3227;42.654;23.360;2022-11-09T10:45:57;33.40;;;22.40;;
6388;SDS011;3227;42.654;23.360;2022-11-09T10:48:30;32.77;;;20.50;;
6388;SDS011;3227;42.654;23.360;2022-11-09T10:50:59;30.17;;;20.93;;
6388;SDS011;3227;42.654;23.360;2022-11-09T10:53:26;34.57;;;22.80;;
6388;SDS011;3227;42.654;23.360;2022-11-09T10:55:55;31.40;;;21.23;;
6388;SDS011;3227;42.654;23.360;2022-11-09T10:58:33;31.83;;;23.07;;
6388;SDS011;3227;42.654;23.360;2022-11-09T11:01:03;30.33;;;21.07;;
6388;SDS011;3227;42.654;23.360;2022-11-09T11:03:33;30.40;;;19.27;;
6388;SDS011;3227;42.654;23.360;2022-11-09T11:06:03;29.87;;;19.63;;
6388;SDS011;3227;42.654;23.360;2022-11-09T11:08:36;30.97;;;20.47;;
6388;SDS011;3227;42.654;23.360;2022-11-09T11:11:19;31.83;;;19.87;;
6388;SDS011;3227;42.654;23.360;2022-11-09T11:13:48;27.63;;;18.53;;
6388;SDS011;3227;42.654;23.360;2022-11-09T11:16:24;28.73;;;18.50;;
6388;SDS011;3227;42.654;23.360;2022-11-09T11:18:54;31.23;;;20.20;;
6388;SDS011;3227;42.654;23.360;2022-11-09T11:21:22;28.67;;;20.93;;
6388;SDS011;3227;42.654;23.360;2022-11-09T11:24:10;31.73;;;20.83;;
6388;SDS011;3227;42.654;23.360;2022-11-09T11:26:42;31.33;;;20.90;;
6388;SDS011;3227;42.654;23.360;2022-11-09T11:32:08;35.13;;;20.97;;
6388;SDS011;3227;42.654;23.360;2022-11-09T11:34:38;30.03;;;21.07;;
6388;SDS011;3227;42.654;23.360;2022-11-09T11:37:10;30.87;;;20.40;;
6388;SDS011;3227;42.654;23.360;2022-11-09T11:39:52;32.50;;;20.97;;
6388;SDS011;3227;42.654;23.360;2022-11-09T11:42:31;29.37;;;20.17;;
6388;SDS011;3227;42.654;23.360;2022-11-09T11:45:14;29.07;;;20.40;;
6388;SDS011;3227;42.654;23.360;2022-11-09T11:47:48;32.97;;;21.53;;
6388;SDS011;3227;42.654;23.360;2022-11-09T11:50:27;29.50;;;20.60;;
6388;SDS011;3227;42.654;23.360;2022-11-09T11:53:07;34.57;;;21.83;;
6388;SDS011;3227;42.654;23.360;2022-11-09T11:55:48;32.37;;;22.00;;
6388;SDS011;3227;42.654;23.360;2022-11-09T11:58:28;33.00;;;22.57;;
6388;SDS011;3227;42.654;23.360;2022-11-09T12:01:06;31.43;;;21.50;;
6388;SDS011;3227;42.654;23.360;2022-11-09T12:03:49;28.93;;;20.23;;
6388;SDS011;3227;42.654;23.360;2022-11-09T12:06:30;30.23;;;19.63;;
6388;SDS011;3227;42.654;23.360;2022-11-09T12:09:12;31.10;;;21.17;;
6388;SDS011;3227;42.654;23.360;2022-11-09T12:11:56;31.33;;;21.10;;
6388;SDS011;3227;42.654;23.360;2022-11-09T12:14:35;30.77;;;21.67;;
6388;SDS011;3227;42.654;23.360;2022-11-09T12:17:11;29.07;;;20.90;;
6388;SDS011;3227;42.654;23.360;2022-11-09T12:22:38;30.73;;;20.77;;
6388;SDS011;3227;42.654;23.360;2022-11-09T12:25:15;32.70;;;21.07;;
6388;SDS011;3227;42.654;23.360;2022-11-09T12:27:50;33.30;;;21.63;;
6388;SDS011;3227;42.654;23.360;2022-11-09T12:30:31;33.07;;;21.60;;
6388;SDS011;3227;42.654;23.360;2022-11-09T12:33:12;30.00;;;20.13;;
6388;SDS011;3227;42.654;23.360;2022-11-09T12:35:49;35.63;;;21.43;;
6388;SDS011;3227;42.654;23.360;2022-11-09T12:38:22;31.23;;;21.43;;
6388;SDS011;3227;42.654;23.360;2022-11-09T12:40:53;30.60;;;20.00;;
6388;SDS011;3227;42.654;23.360;2022-11-09T12:43:28;33.83;;;20.97;;
6388;SDS011;3227;42.654;23.360;2022-11-09T12:45:57;29.60;;;21.63;;
6388;SDS011;3227;42.654;23.360;2022-11-09T12:48:27;32.40;;;21.70;;
6388;SDS011;3227;42.654;23.360;2022-11-09T12:50:57;31.27;;;22.00;;
6388;SDS011;3227;42.654;23.360;2022-11-09T12:53:27;33.67;;;22.53;;
6388;SDS011;3227;42.654;23.360;2022-11-09T12:56:00;33.20;;;22.77;;
6388;SDS011;3227;42.654;23.360;2022-11-09T12:58:32;33.97;;;22.50;;
6388;SDS011;3227;42.654;23.360;2022-11-09T13:01:02;34.80;;;22.27;;
6388;SDS011;3227;42.654;23.360;2022-11-09T13:03:31;47.27;;;28.73;;
6388;SDS011;3227;42.654;23.360;2022-11-09T13:06:10;38.17;;;22.87;;
6388;SDS011;3227;42.654;23.360;2022-11-09T13:08:45;33.03;;;22.33;;
6388;SDS011;3227;42.654;23.360;2022-11-09T13:11:25;30.37;;;21.23;;
6388;SDS011;3227;42.654;23.360;2022-11-09T13:16:54;35.57;;;21.97;;
6388;SDS011;3227;42.654;23.360;2022-11-09T13:31:10;34.43;;;22.80;;
6388;SDS011;3227;42.654;23.360;2022-11-09T13:33:37;31.60;;;22.10;;
6388;SDS011;3227;42.654;23.360;2022-11-09T13:38:49;36.40;;;23.97;;
6388;SDS011;3227;42.654;23.360;2022-11-09T13:41:54;32.57;;;24.73;;
6388;SDS011;3227;42.654;23.360;2022-11-09T13:44:22;38.77;;;24.63;;
6388;SDS011;3227;42.654;23.360;2022-11-09T13:46:51;33.17;;;22.03;;
6388;SDS011;3227;42.654;23.360;2022-11-09T13:55:17;34.37;;;23.03;;
6388;SDS011;3227;42.654;23.360;2022-11-09T13:57:51;37.30;;;23.50;;
6388;SDS011;3227;42.654;23.360;2022-11-09T14:00:19;35.87;;;23.27;;
6388;SDS011;3227;42.654;23.360;2022-11-09T14:02:52;39.60;;;22.43;;
6388;SDS011;3227;42.654;23.360;2022-11-09T14:05:23;33.77;;;22.80;;
6388;SDS011;3227;42.654;23.360;2022-11-09T14:07:52;37.90;;;23.07;;
6388;SDS011;3227;42.654;23.360;2022-11-09T14:10:22;39.30;;;24.47;;
6388;SDS011;3227;42.654;23.360;2022-11-09T14:13:05;35.17;;;23.33;;
6388;SDS011;3227;42.654;23.360;2022-11-09T14:15:53;37.30;;;23.00;;
6388;SDS011;3227;42.654;23.360;2022-11-09T14:18:27;34.77;;;23.97;;
6388;SDS011;3227;42.654;23.360;2022-11-09T14:21:06;39.23;;;23.87;;
6388;SDS011;3227;42.654;23.360;2022-11-09T14:23:43;40.57;;;25.30;;
6388;SDS011;3227;42.654;23.360;2022-11-09T14:26:15;41.97;;;26.40;;
6388;SDS011;3227;42.654;23.360;2022-11-09T14:28:44;41.40;;;25.10;;
6388;SDS011;3227;42.654;23.360;2022-11-09T14:31:21;40.50;;;25.20;;
6388;SDS011;3227;42.654;23.360;2022-11-09T14:33:56;40.93;;;24.03;;
6388;SDS011;3227;42.654;23.360;2022-11-09T14:36:25;41.97;;;24.90;;
6388;SDS011;3227;42.654;23.360;2022-11-09T14:38:52;46.10;;;26.90;;
6388;SDS011;3227;42.654;23.360;2022-11-09T14:41:22;61.37;;;27.97;;
6388;SDS011;3227;42.654;23.360;2022-11-09T14:43:52;51.87;;;27.27;;
6388;SDS011;3227;42.654;23.360;2022-11-09T14:46:21;48.90;;;28.13;;
6388;SDS011;3227;42.654;23.360;2022-11-09T14:48:50;51.10;;;27.20;;
6388;SDS011;3227;42.654;23.360;2022-11-09T14:51:17;49.80;;;27.37;;
6388;SDS011;3227;42.654;23.360;2022-11-09T14:53:46;49.30;;;27.97;;
6388;SDS011;3227;42.654;23.360;2022-11-09T14:56:16;56.57;;;27.40;;
6388;SDS011;3227;42.654;23.360;2022-11-09T14:58:44;48.53;;;26.63;;
6388;SDS011;3227;42.654;23.360;2022-11-09T15:01:21;53.97;;;26.60;;
6388;SDS011;3227;42.654;23.360;2022-11-09T15:04:06;62.07;;;27.83;;
6388;SDS011;3227;42.654;23.360;2022-11-09T15:06:35;45.97;;;27.53;;
6388;SDS011;3227;42.654;23.360;2022-11-09T15:09:13;55.63;;;28.90;;
6388;SDS011;3227;42.654;23.360;2022-11-09T15:11:42;51.23;;;28.43;;
6388;SDS011;3227;42.654;23.360;2022-11-09T15:14:10;57.90;;;29.33;;
6388;SDS011;3227;42.654;23.360;2022-11-09T15:16:40;56.40;;;29.60;;
6388;SDS011;3227;42.654;23.360;2022-11-09T15:19:21;64.30;;;30.77;;